Terrenceville, Canada
Current Conditions -  °F | °C
As of 5:00 AM on Tuesday 21 Oct 2014 (Local Time) from CYQX Reporting Station
Few Clouds Few Clouds  
Wind Chill:   Ceiling: Unl
Heat Index:   Visibility: 20mi
Dew Point:   Wind: 20mph
Humidity: 76%   Direction: 230°SW
Pressure: 29.67"   Gusts: 31mph
Location:  47.68°N, 54.72°W
Report Text: CYQX 210700Z 23017G27KT 20SM FEW032 05/01 A2967 RMK SC1 SLP052
Loading
Personal Weather Stations






























Interactive Weather Map
Tropical Storm Tracking
New forecast layout! Learn more

10-Day Weather Forecast

Advertisements
Track Severe Weather on mobile